sensor_id;sensor_type;location;lat;lon;timestamp;P1;durP1;ratioP1;P2;durP2;ratioP2
61895;SDS011;47835;52.778;5.956;2024-02-28T00:01:50;34.20;;;17.00;;
61895;SDS011;47835;52.778;5.956;2024-02-28T00:04:16;41.95;;;18.08;;
61895;SDS011;47835;52.778;5.956;2024-02-28T00:06:42;32.85;;;14.88;;
61895;SDS011;47835;52.778;5.956;2024-02-28T00:09:08;45.97;;;17.60;;
61895;SDS011;47835;52.778;5.956;2024-02-28T00:11:36;40.97;;;18.15;;
61895;SDS011;47835;52.778;5.956;2024-02-28T00:14:05;46.90;;;18.83;;
61895;SDS011;47835;52.778;5.956;2024-02-28T00:16:31;42.22;;;17.65;;
61895;SDS011;47835;52.778;5.956;2024-02-28T00:18:57;45.50;;;18.95;;
61895;SDS011;47835;52.778;5.956;2024-02-28T00:21:22;43.70;;;18.40;;
61895;SDS011;47835;52.778;5.956;2024-02-28T00:23:48;43.50;;;19.08;;
61895;SDS011;47835;52.778;5.956;2024-02-28T00:26:14;38.00;;;20.02;;
61895;SDS011;47835;52.778;5.956;2024-02-28T00:28:40;44.53;;;20.40;;
61895;SDS011;47835;52.778;5.956;2024-02-28T00:31:06;41.53;;;18.50;;
61895;SDS011;47835;52.778;5.956;2024-02-28T00:33:31;43.55;;;20.52;;
61895;SDS011;47835;52.778;5.956;2024-02-28T00:35:57;40.47;;;19.08;;
61895;SDS011;47835;52.778;5.956;2024-02-28T00:38:23;45.47;;;19.02;;
61895;SDS011;47835;52.778;5.956;2024-02-28T00:40:49;46.38;;;19.17;;
61895;SDS011;47835;52.778;5.956;2024-02-28T00:43:15;47.85;;;19.90;;
61895;SDS011;47835;52.778;5.956;2024-02-28T00:45:40;43.05;;;20.48;;
61895;SDS011;47835;52.778;5.956;2024-02-28T00:48:06;51.65;;;20.15;;
61895;SDS011;47835;52.778;5.956;2024-02-28T00:50:32;47.92;;;21.38;;
61895;SDS011;47835;52.778;5.956;2024-02-28T00:52:58;63.38;;;22.15;;
61895;SDS011;47835;52.778;5.956;2024-02-28T00:55:23;73.63;;;20.85;;
61895;SDS011;47835;52.778;5.956;2024-02-28T00:57:49;56.40;;;19.95;;
61895;SDS011;47835;52.778;5.956;2024-02-28T01:00:15;65.50;;;21.23;;
61895;SDS011;47835;52.778;5.956;2024-02-28T01:02:41;66.95;;;21.27;;
61895;SDS011;47835;52.778;5.956;2024-02-28T01:05:07;74.85;;;22.05;;
61895;SDS011;47835;52.778;5.956;2024-02-28T01:07:33;69.82;;;21.75;;
61895;SDS011;47835;52.778;5.956;2024-02-28T01:09:58;62.13;;;20.05;;
61895;SDS011;47835;52.778;5.956;2024-02-28T01:12:24;65.95;;;21.15;;
61895;SDS011;47835;52.778;5.956;2024-02-28T01:14:50;118.15;;;25.30;;
61895;SDS011;47835;52.778;5.956;2024-02-28T01:17:16;80.63;;;22.30;;
61895;SDS011;47835;52.778;5.956;2024-02-28T01:19:41;79.60;;;21.52;;
61895;SDS011;47835;52.778;5.956;2024-02-28T01:22:09;53.88;;;21.08;;
61895;SDS011;47835;52.778;5.956;2024-02-28T01:24:35;85.18;;;22.10;;
61895;SDS011;47835;52.778;5.956;2024-02-28T01:27:02;90.22;;;24.10;;
61895;SDS011;47835;52.778;5.956;2024-02-28T01:29:28;119.40;;;22.88;;
61895;SDS011;47835;52.778;5.956;2024-02-28T01:31:55;119.82;;;24.63;;
61895;SDS011;47835;52.778;5.956;2024-02-28T01:34:20;88.25;;;20.60;;
61895;SDS011;47835;52.778;5.956;2024-02-28T01:36:47;129.70;;;25.60;;
61895;SDS011;47835;52.778;5.956;2024-02-28T01:39:13;96.22;;;24.77;;
61895;SDS011;47835;52.778;5.956;2024-02-28T01:41:38;117.45;;;23.15;;
61895;SDS011;47835;52.778;5.956;2024-02-28T01:44:04;88.88;;;20.67;;
61895;SDS011;47835;52.778;5.956;2024-02-28T01:46:30;85.78;;;22.35;;
61895;SDS011;47835;52.778;5.956;2024-02-28T01:48:56;91.55;;;21.63;;
61895;SDS011;47835;52.778;5.956;2024-02-28T01:51:23;117.75;;;24.35;;
61895;SDS011;47835;52.778;5.956;2024-02-28T01:53:52;89.20;;;22.17;;
61895;SDS011;47835;52.778;5.956;2024-02-28T01:56:18;102.30;;;25.42;;
61895;SDS011;47835;52.778;5.956;2024-02-28T01:58:46;95.20;;;24.23;;
61895;SDS011;47835;52.778;5.956;2024-02-28T02:01:15;93.97;;;23.73;;
61895;SDS011;47835;52.778;5.956;2024-02-28T02:03:45;66.38;;;22.80;;
61895;SDS011;47835;52.778;5.956;2024-02-28T02:06:11;80.90;;;23.45;;
61895;SDS011;47835;52.778;5.956;2024-02-28T02:08:37;65.28;;;22.92;;
61895;SDS011;47835;52.778;5.956;2024-02-28T02:11:04;69.13;;;23.17;;
61895;SDS011;47835;52.778;5.956;2024-02-28T02:13:30;90.18;;;25.58;;
61895;SDS011;47835;52.778;5.956;2024-02-28T02:15:56;70.07;;;23.23;;
61895;SDS011;47835;52.778;5.956;2024-02-28T02:18:21;74.35;;;22.90;;
61895;SDS011;47835;52.778;5.956;2024-02-28T02:20:49;76.28;;;22.52;;
61895;SDS011;47835;52.778;5.956;2024-02-28T02:23:19;70.75;;;24.83;;
61895;SDS011;47835;52.778;5.956;2024-02-28T02:25:45;104.85;;;24.15;;
61895;SDS011;47835;52.778;5.956;2024-02-28T02:28:12;78.03;;;23.35;;
61895;SDS011;47835;52.778;5.956;2024-02-28T02:30:38;83.05;;;22.08;;
61895;SDS011;47835;52.778;5.956;2024-02-28T02:33:05;102.88;;;24.40;;
61895;SDS011;47835;52.778;5.956;2024-02-28T02:35:34;90.57;;;22.95;;
61895;SDS011;47835;52.778;5.956;2024-02-28T02:38:00;61.08;;;21.38;;
61895;SDS011;47835;52.778;5.956;2024-02-28T02:40:28;58.78;;;20.85;;
61895;SDS011;47835;52.778;5.956;2024-02-28T02:42:54;88.05;;;24.15;;
61895;SDS011;47835;52.778;5.956;2024-02-28T02:45:22;105.50;;;21.30;;
61895;SDS011;47835;52.778;5.956;2024-02-28T02:47:48;65.30;;;20.85;;
61895;SDS011;47835;52.778;5.956;2024-02-28T02:50:14;79.68;;;21.13;;
61895;SDS011;47835;52.778;5.956;2024-02-28T02:52:40;83.25;;;22.70;;
61895;SDS011;47835;52.778;5.956;2024-02-28T02:55:06;65.95;;;21.33;;
61895;SDS011;47835;52.778;5.956;2024-02-28T02:57:32;63.53;;;21.58;;
61895;SDS011;47835;52.778;5.956;2024-02-28T02:59:58;52.85;;;17.83;;
61895;SDS011;47835;52.778;5.956;2024-02-28T03:02:24;81.32;;;23.80;;
61895;SDS011;47835;52.778;5.956;2024-02-28T03:04:50;58.67;;;20.75;;
61895;SDS011;47835;52.778;5.956;2024-02-28T03:07:16;70.80;;;20.95;;
61895;SDS011;47835;52.778;5.956;2024-02-28T03:09:42;80.55;;;24.77;;
61895;SDS011;47835;52.778;5.956;2024-02-28T03:12:07;83.75;;;22.90;;
61895;SDS011;47835;52.778;5.956;2024-02-28T03:14:34;64.65;;;22.90;;
61895;SDS011;47835;52.778;5.956;2024-02-28T03:17:00;60.78;;;22.05;;
61895;SDS011;47835;52.778;5.956;2024-02-28T03:19:27;57.30;;;21.52;;
61895;SDS011;47835;52.778;5.956;2024-02-28T03:21:53;56.72;;;21.90;;
61895;SDS011;47835;52.778;5.956;2024-02-28T03:24:19;53.88;;;22.17;;
61895;SDS011;47835;52.778;5.956;2024-02-28T03:26:45;64.05;;;22.67;;
61895;SDS011;47835;52.778;5.956;2024-02-28T03:29:10;60.00;;;23.00;;
61895;SDS011;47835;52.778;5.956;2024-02-28T03:31:36;66.68;;;23.50;;
61895;SDS011;47835;52.778;5.956;2024-02-28T03:34:02;53.35;;;21.42;;
61895;SDS011;47835;52.778;5.956;2024-02-28T03:36:30;67.57;;;23.90;;
61895;SDS011;47835;52.778;5.956;2024-02-28T03:38:56;58.05;;;22.17;;
61895;SDS011;47835;52.778;5.956;2024-02-28T03:41:22;66.88;;;23.02;;
61895;SDS011;47835;52.778;5.956;2024-02-28T03:43:48;64.13;;;24.67;;
61895;SDS011;47835;52.778;5.956;2024-02-28T03:46:13;63.45;;;24.35;;
61895;SDS011;47835;52.778;5.956;2024-02-28T03:48:40;55.47;;;22.80;;
61895;SDS011;47835;52.778;5.956;2024-02-28T03:51:06;72.38;;;24.90;;
61895;SDS011;47835;52.778;5.956;2024-02-28T03:53:32;69.10;;;24.10;;
61895;SDS011;47835;52.778;5.956;2024-02-28T03:55:57;60.15;;;22.90;;
61895;SDS011;47835;52.778;5.956;2024-02-28T03:58:23;63.28;;;24.33;;
61895;SDS011;47835;52.778;5.956;2024-02-28T04:00:49;61.30;;;24.50;;
61895;SDS011;47835;52.778;5.956;2024-02-28T04:03:15;59.15;;;22.42;;
61895;SDS011;47835;52.778;5.956;2024-02-28T04:05:47;62.58;;;23.92;;
61895;SDS011;47835;52.778;5.956;2024-02-28T04:08:16;60.30;;;25.05;;
61895;SDS011;47835;52.778;5.956;2024-02-28T04:10:42;63.30;;;24.85;;
61895;SDS011;47835;52.778;5.956;2024-02-28T04:13:08;65.10;;;24.60;;
61895;SDS011;47835;52.778;5.956;2024-02-28T04:15:34;66.47;;;27.52;;
61895;SDS011;47835;52.778;5.956;2024-02-28T04:18:00;73.40;;;26.73;;
61895;SDS011;47835;52.778;5.956;2024-02-28T04:20:26;59.22;;;24.38;;
61895;SDS011;47835;52.778;5.956;2024-02-28T04:22:51;67.70;;;24.58;;
61895;SDS011;47835;52.778;5.956;2024-02-28T04:25:17;70.30;;;26.27;;
61895;SDS011;47835;52.778;5.956;2024-02-28T04:27:43;69.72;;;26.80;;
61895;SDS011;47835;52.778;5.956;2024-02-28T04:30:09;74.03;;;26.48;;
61895;SDS011;47835;52.778;5.956;2024-02-28T04:32:36;75.70;;;27.70;;
61895;SDS011;47835;52.778;5.956;2024-02-28T04:35:03;69.90;;;27.05;;
61895;SDS011;47835;52.778;5.956;2024-02-28T04:37:29;63.45;;;25.55;;
61895;SDS011;47835;52.778;5.956;2024-02-28T04:39:54;73.00;;;26.27;;
61895;SDS011;47835;52.778;5.956;2024-02-28T04:42:20;80.20;;;26.95;;
61895;SDS011;47835;52.778;5.956;2024-02-28T04:44:46;68.22;;;26.13;;
61895;SDS011;47835;52.778;5.956;2024-02-28T04:47:12;68.35;;;27.00;;
61895;SDS011;47835;52.778;5.956;2024-02-28T04:49:38;71.82;;;26.05;;
61895;SDS011;47835;52.778;5.956;2024-02-28T04:52:04;75.80;;;27.75;;
61895;SDS011;47835;52.778;5.956;2024-02-28T04:54:33;60.90;;;25.77;;
61895;SDS011;47835;52.778;5.956;2024-02-28T04:56:59;62.70;;;26.52;;
61895;SDS011;47835;52.778;5.956;2024-02-28T04:59:31;65.28;;;26.05;;
61895;SDS011;47835;52.778;5.956;2024-02-28T05:01:57;70.75;;;28.52;;
61895;SDS011;47835;52.778;5.956;2024-02-28T05:04:23;66.80;;;27.52;;
61895;SDS011;47835;52.778;5.956;2024-02-28T05:06:51;70.75;;;27.92;;
61895;SDS011;47835;52.778;5.956;2024-02-28T05:09:17;69.88;;;28.10;;
61895;SDS011;47835;52.778;5.956;2024-02-28T05:11:43;68.65;;;27.35;;
61895;SDS011;47835;52.778;5.956;2024-02-28T05:14:12;68.80;;;26.85;;
61895;SDS011;47835;52.778;5.956;2024-02-28T05:16:38;59.30;;;26.50;;
61895;SDS011;47835;52.778;5.956;2024-02-28T05:19:04;68.95;;;26.70;;
61895;SDS011;47835;52.778;5.956;2024-02-28T05:21:30;70.90;;;29.60;;
61895;SDS011;47835;52.778;5.956;2024-02-28T05:23:56;63.95;;;26.17;;
61895;SDS011;47835;52.778;5.956;2024-02-28T05:26:21;62.08;;;27.25;;
61895;SDS011;47835;52.778;5.956;2024-02-28T05:28:51;62.97;;;25.00;;
61895;SDS011;47835;52.778;5.956;2024-02-28T05:31:23;69.63;;;26.77;;
61895;SDS011;47835;52.778;5.956;2024-02-28T05:33:51;55.42;;;24.60;;
61895;SDS011;47835;52.778;5.956;2024-02-28T05:36:19;70.68;;;27.67;;
61895;SDS011;47835;52.778;5.956;2024-02-28T05:38:45;60.38;;;25.30;;
61895;SDS011;47835;52.778;5.956;2024-02-28T05:41:12;65.25;;;26.13;;
61895;SDS011;47835;52.778;5.956;2024-02-28T05:43:39;68.68;;;26.48;;
61895;SDS011;47835;52.778;5.956;2024-02-28T05:46:05;57.78;;;24.52;;
61895;SDS011;47835;52.778;5.956;2024-02-28T05:48:31;60.13;;;26.13;;
61895;SDS011;47835;52.778;5.956;2024-02-28T05:50:57;58.88;;;26.63;;
61895;SDS011;47835;52.778;5.956;2024-02-28T05:53:25;59.22;;;26.73;;
61895;SDS011;47835;52.778;5.956;2024-02-28T05:55:52;57.92;;;25.58;;
61895;SDS011;47835;52.778;5.956;2024-02-28T05:58:18;65.13;;;26.17;;
61895;SDS011;47835;52.778;5.956;2024-02-28T06:00:44;59.33;;;24.80;;
61895;SDS011;47835;52.778;5.956;2024-02-28T06:03:10;55.58;;;24.90;;
61895;SDS011;47835;52.778;5.956;2024-02-28T06:05:36;58.80;;;25.55;;
61895;SDS011;47835;52.778;5.956;2024-02-28T06:08:02;55.47;;;24.77;;
61895;SDS011;47835;52.778;5.956;2024-02-28T06:10:28;61.28;;;25.60;;
61895;SDS011;47835;52.778;5.956;2024-02-28T06:12:54;59.38;;;26.52;;
61895;SDS011;47835;52.778;5.956;2024-02-28T06:15:19;50.90;;;24.75;;
61895;SDS011;47835;52.778;5.956;2024-02-28T06:17:45;54.05;;;25.60;;
61895;SDS011;47835;52.778;5.956;2024-02-28T06:20:11;56.17;;;25.73;;
61895;SDS011;47835;52.778;5.956;2024-02-28T06:22:37;55.80;;;24.42;;
61895;SDS011;47835;52.778;5.956;2024-02-28T06:25:03;54.15;;;26.52;;
61895;SDS011;47835;52.778;5.956;2024-02-28T06:27:32;55.20;;;26.27;;
61895;SDS011;47835;52.778;5.956;2024-02-28T06:30:01;56.47;;;25.80;;
61895;SDS011;47835;52.778;5.956;2024-02-28T06:32:28;56.20;;;25.83;;
61895;SDS011;47835;52.778;5.956;2024-02-28T06:34:54;61.65;;;25.70;;
61895;SDS011;47835;52.778;5.956;2024-02-28T06:37:20;56.08;;;25.95;;
61895;SDS011;47835;52.778;5.956;2024-02-28T06:39:46;49.78;;;24.38;;
61895;SDS011;47835;52.778;5.956;2024-02-28T06:42:11;55.13;;;25.30;;
61895;SDS011;47835;52.778;5.956;2024-02-28T06:44:37;49.08;;;25.92;;
61895;SDS011;47835;52.778;5.956;2024-02-28T06:47:06;48.78;;;22.27;;
61895;SDS011;47835;52.778;5.956;2024-02-28T06:49:34;58.45;;;26.02;;
61895;SDS011;47835;52.778;5.956;2024-02-28T06:52:00;52.85;;;24.63;;
61895;SDS011;47835;52.778;5.956;2024-02-28T06:54:27;52.25;;;24.35;;
61895;SDS011;47835;52.778;5.956;2024-02-28T06:56:53;51.70;;;25.75;;
61895;SDS011;47835;52.778;5.956;2024-02-28T06:59:20;50.42;;;25.25;;
61895;SDS011;47835;52.778;5.956;2024-02-28T07:01:46;54.35;;;26.55;;
61895;SDS011;47835;52.778;5.956;2024-02-28T07:04:19;56.08;;;25.90;;
61895;SDS011;47835;52.778;5.956;2024-02-28T07:06:45;53.35;;;26.67;;
61895;SDS011;47835;52.778;5.956;2024-02-28T07:09:11;55.70;;;27.05;;
61895;SDS011;47835;52.778;5.956;2024-02-28T07:11:37;48.33;;;25.80;;
61895;SDS011;47835;52.778;5.956;2024-02-28T07:14:04;52.42;;;26.58;;
61895;SDS011;47835;52.778;5.956;2024-02-28T07:16:30;58.40;;;27.67;;
61895;SDS011;47835;52.778;5.956;2024-02-28T07:18:57;53.28;;;27.00;;
61895;SDS011;47835;52.778;5.956;2024-02-28T07:21:23;49.63;;;26.13;;
61895;SDS011;47835;52.778;5.956;2024-02-28T07:23:49;54.17;;;26.52;;
61895;SDS011;47835;52.778;5.956;2024-02-28T07:26:17;45.60;;;25.27;;
61895;SDS011;47835;52.778;5.956;2024-02-28T07:28:43;51.78;;;26.38;;
61895;SDS011;47835;52.778;5.956;2024-02-28T07:31:18;50.30;;;29.55;;
61895;SDS011;47835;52.778;5.956;2024-02-28T07:33:44;50.60;;;25.63;;
61895;SDS011;47835;52.778;5.956;2024-02-28T07:36:10;48.80;;;25.98;;
61895;SDS011;47835;52.778;5.956;2024-02-28T07:38:36;59.20;;;28.42;;
61895;SDS011;47835;52.778;5.956;2024-02-28T07:41:02;55.83;;;28.90;;
61895;SDS011;47835;52.778;5.956;2024-02-28T07:43:28;54.50;;;27.60;;
61895;SDS011;47835;52.778;5.956;2024-02-28T07:45:58;54.25;;;26.90;;
61895;SDS011;47835;52.778;5.956;2024-02-28T07:48:24;57.80;;;28.90;;
61895;SDS011;47835;52.778;5.956;2024-02-28T07:50:49;49.45;;;27.85;;
61895;SDS011;47835;52.778;5.956;2024-02-28T07:53:16;53.15;;;27.67;;
61895;SDS011;47835;52.778;5.956;2024-02-28T07:55:42;52.28;;;27.15;;
61895;SDS011;47835;52.778;5.956;2024-02-28T07:58:08;55.70;;;28.45;;
61895;SDS011;47835;52.778;5.956;2024-02-28T08:00:37;54.92;;;27.58;;
61895;SDS011;47835;52.778;5.956;2024-02-28T08:03:03;60.88;;;29.70;;
61895;SDS011;47835;52.778;5.956;2024-02-28T08:05:29;54.65;;;29.90;;
61895;SDS011;47835;52.778;5.956;2024-02-28T08:07:55;56.35;;;28.45;;
61895;SDS011;47835;52.778;5.956;2024-02-28T08:10:21;59.05;;;31.30;;
61895;SDS011;47835;52.778;5.956;2024-02-28T08:12:46;63.75;;;31.52;;
61895;SDS011;47835;52.778;5.956;2024-02-28T08:15:12;54.00;;;28.88;;
61895;SDS011;47835;52.778;5.956;2024-02-28T08:17:38;57.88;;;30.85;;
61895;SDS011;47835;52.778;5.956;2024-02-28T08:20:04;55.78;;;29.40;;
61895;SDS011;47835;52.778;5.956;2024-02-28T08:22:31;58.05;;;28.60;;
61895;SDS011;47835;52.778;5.956;2024-02-28T08:24:56;56.05;;;30.52;;
61895;SDS011;47835;52.778;5.956;2024-02-28T08:27:25;49.30;;;26.23;;
61895;SDS011;47835;52.778;5.956;2024-02-28T08:29:53;60.30;;;29.95;;
61895;SDS011;47835;52.778;5.956;2024-02-28T08:32:19;56.40;;;29.25;;
61895;SDS011;47835;52.778;5.956;2024-02-28T08:34:45;61.50;;;30.05;;
61895;SDS011;47835;52.778;5.956;2024-02-28T08:37:14;60.03;;;30.80;;
61895;SDS011;47835;52.778;5.956;2024-02-28T08:39:41;53.10;;;29.77;;
61895;SDS011;47835;52.778;5.956;2024-02-28T08:42:06;63.58;;;29.83;;
61895;SDS011;47835;52.778;5.956;2024-02-28T08:44:37;57.10;;;29.73;;
61895;SDS011;47835;52.778;5.956;2024-02-28T08:47:03;62.22;;;30.58;;
61895;SDS011;47835;52.778;5.956;2024-02-28T08:49:29;58.22;;;29.15;;
61895;SDS011;47835;52.778;5.956;2024-02-28T08:51:56;51.28;;;29.30;;
61895;SDS011;47835;52.778;5.956;2024-02-28T08:54:22;52.97;;;28.65;;
61895;SDS011;47835;52.778;5.956;2024-02-28T08:56:48;52.42;;;25.73;;
61895;SDS011;47835;52.778;5.956;2024-02-28T08:59:14;54.40;;;28.55;;
61895;SDS011;47835;52.778;5.956;2024-02-28T09:01:40;50.60;;;27.23;;
61895;SDS011;47835;52.778;5.956;2024-02-28T09:04:06;52.45;;;27.63;;
61895;SDS011;47835;52.778;5.956;2024-02-28T09:06:32;53.92;;;29.08;;
61895;SDS011;47835;52.778;5.956;2024-02-28T09:09:01;51.92;;;30.35;;
61895;SDS011;47835;52.778;5.956;2024-02-28T09:11:27;54.42;;;29.75;;
61895;SDS011;47835;52.778;5.956;2024-02-28T09:13:52;56.42;;;29.95;;
61895;SDS011;47835;52.778;5.956;2024-02-28T09:16:18;59.42;;;28.25;;
61895;SDS011;47835;52.778;5.956;2024-02-28T09:18:44;56.83;;;29.33;;
61895;SDS011;47835;52.778;5.956;2024-02-28T09:21:10;54.60;;;30.02;;
61895;SDS011;47835;52.778;5.956;2024-02-28T09:23:36;55.97;;;29.60;;
61895;SDS011;47835;52.778;5.956;2024-02-28T09:26:05;61.45;;;30.80;;
61895;SDS011;47835;52.778;5.956;2024-02-28T09:28:31;60.05;;;29.75;;
61895;SDS011;47835;52.778;5.956;2024-02-28T09:31:04;58.17;;;28.98;;
61895;SDS011;47835;52.778;5.956;2024-02-28T09:33:31;62.92;;;33.67;;
61895;SDS011;47835;52.778;5.956;2024-02-28T09:35:56;55.55;;;27.63;;
61895;SDS011;47835;52.778;5.956;2024-02-28T09:38:22;57.38;;;29.73;;
61895;SDS011;47835;52.778;5.956;2024-02-28T09:40:48;65.82;;;32.65;;
61895;SDS011;47835;52.778;5.956;2024-02-28T09:43:19;67.65;;;33.40;;
61895;SDS011;47835;52.778;5.956;2024-02-28T09:46:11;61.10;;;30.42;;
61895;SDS011;47835;52.778;5.956;2024-02-28T09:48:43;63.15;;;31.58;;
61895;SDS011;47835;52.778;5.956;2024-02-28T09:51:14;62.97;;;32.35;;
61895;SDS011;47835;52.778;5.956;2024-02-28T09:53:46;65.45;;;32.55;;
61895;SDS011;47835;52.778;5.956;2024-02-28T09:56:12;66.13;;;32.85;;
61895;SDS011;47835;52.778;5.956;2024-02-28T09:58:38;61.20;;;32.75;;
61895;SDS011;47835;52.778;5.956;2024-02-28T10:01:06;63.60;;;34.25;;
61895;SDS011;47835;52.778;5.956;2024-02-28T10:03:34;66.40;;;34.28;;
61895;SDS011;47835;52.778;5.956;2024-02-28T10:06:02;73.63;;;34.17;;
61895;SDS011;47835;52.778;5.956;2024-02-28T10:08:30;65.63;;;32.95;;
61895;SDS011;47835;52.778;5.956;2024-02-28T10:10:56;69.43;;;34.05;;
61895;SDS011;47835;52.778;5.956;2024-02-28T10:13:23;63.38;;;31.27;;
61895;SDS011;47835;52.778;5.956;2024-02-28T10:15:49;63.28;;;34.00;;
61895;SDS011;47835;52.778;5.956;2024-02-28T10:18:18;62.33;;;33.88;;
61895;SDS011;47835;52.778;5.956;2024-02-28T10:20:45;67.57;;;36.33;;
61895;SDS011;47835;52.778;5.956;2024-02-28T10:23:13;66.03;;;33.15;;
61895;SDS011;47835;52.778;5.956;2024-02-28T10:25:46;65.68;;;35.17;;
61895;SDS011;47835;52.778;5.956;2024-02-28T10:28:16;64.05;;;34.13;;
61895;SDS011;47835;52.778;5.956;2024-02-28T10:30:42;60.60;;;32.47;;
61895;SDS011;47835;52.778;5.956;2024-02-28T10:33:11;63.97;;;34.20;;
61895;SDS011;47835;52.778;5.956;2024-02-28T10:35:41;61.10;;;33.55;;
61895;SDS011;47835;52.778;5.956;2024-02-28T10:38:10;58.80;;;33.55;;
61895;SDS011;47835;52.778;5.956;2024-02-28T10:40:39;61.10;;;34.08;;
61895;SDS011;47835;52.778;5.956;2024-02-28T10:43:07;58.72;;;33.03;;
61895;SDS011;47835;52.778;5.956;2024-02-28T10:45:35;59.17;;;34.25;;
61895;SDS011;47835;52.778;5.956;2024-02-28T10:48:05;56.30;;;32.17;;
61895;SDS011;47835;52.778;5.956;2024-02-28T10:50:31;49.80;;;30.58;;
61895;SDS011;47835;52.778;5.956;2024-02-28T10:53:02;57.53;;;34.00;;
61895;SDS011;47835;52.778;5.956;2024-02-28T10:55:37;59.97;;;35.17;;
61895;SDS011;47835;52.778;5.956;2024-02-28T10:58:09;56.88;;;33.65;;
61895;SDS011;47835;52.778;5.956;2024-02-28T11:00:39;48.05;;;31.55;;
61895;SDS011;47835;52.778;5.956;2024-02-28T11:03:07;53.60;;;30.08;;
61895;SDS011;47835;52.778;5.956;2024-02-28T11:05:35;46.47;;;29.90;;
61895;SDS011;47835;52.778;5.956;2024-02-28T11:08:02;50.58;;;32.03;;
61895;SDS011;47835;52.778;5.956;2024-02-28T11:10:34;46.78;;;31.42;;
61895;SDS011;47835;52.778;5.956;2024-02-28T11:13:07;46.63;;;31.20;;
61895;SDS011;47835;52.778;5.956;2024-02-28T11:15:36;51.13;;;33.33;;
61895;SDS011;47835;52.778;5.956;2024-02-28T11:18:08;46.75;;;32.00;;
61895;SDS011;47835;52.778;5.956;2024-02-28T11:20:35;49.50;;;32.25;;
61895;SDS011;47835;52.778;5.956;2024-02-28T11:23:01;40.45;;;27.80;;
61895;SDS011;47835;52.778;5.956;2024-02-28T11:25:26;48.47;;;31.23;;
61895;SDS011;47835;52.778;5.956;2024-02-28T11:27:52;45.22;;;29.77;;
61895;SDS011;47835;52.778;5.956;2024-02-28T11:30:21;37.10;;;25.90;;
61895;SDS011;47835;52.778;5.956;2024-02-28T11:32:47;38.88;;;28.27;;
61895;SDS011;47835;52.778;5.956;2024-02-28T11:35:12;39.67;;;25.85;;
61895;SDS011;47835;52.778;5.956;2024-02-28T11:37:38;40.50;;;28.83;;
61895;SDS011;47835;52.778;5.956;2024-02-28T11:40:08;37.03;;;26.45;;
61895;SDS011;47835;52.778;5.956;2024-02-28T11:42:35;34.42;;;25.60;;
61895;SDS011;47835;52.778;5.956;2024-02-28T11:45:01;34.97;;;25.30;;
61895;SDS011;47835;52.778;5.956;2024-02-28T11:47:31;35.25;;;26.05;;
61895;SDS011;47835;52.778;5.956;2024-02-28T11:50:00;37.38;;;25.13;;
61895;SDS011;47835;52.778;5.956;2024-02-28T11:52:27;40.28;;;25.55;;
61895;SDS011;47835;52.778;5.956;2024-02-28T11:54:55;42.35;;;28.83;;
61895;SDS011;47835;52.778;5.956;2024-02-28T11:57:21;53.00;;;31.83;;
61895;SDS011;47835;52.778;5.956;2024-02-28T11:59:47;88.15;;;52.08;;
61895;SDS011;47835;52.778;5.956;2024-02-28T12:02:14;95.43;;;54.80;;
61895;SDS011;47835;52.778;5.956;2024-02-28T12:04:44;46.45;;;31.63;;
61895;SDS011;47835;52.778;5.956;2024-02-28T12:07:10;55.55;;;37.65;;
61895;SDS011;47835;52.778;5.956;2024-02-28T12:09:36;43.95;;;27.48;;
61895;SDS011;47835;52.778;5.956;2024-02-28T12:12:03;41.33;;;26.65;;
61895;SDS011;47835;52.778;5.956;2024-02-28T12:14:32;37.35;;;27.30;;
61895;SDS011;47835;52.778;5.956;2024-02-28T12:17:01;37.10;;;28.08;;
61895;SDS011;47835;52.778;5.956;2024-02-28T12:19:27;36.33;;;27.27;;
61895;SDS011;47835;52.778;5.956;2024-02-28T12:21:53;125.35;;;69.18;;
61895;SDS011;47835;52.778;5.956;2024-02-28T12:24:20;238.88;;;117.47;;
61895;SDS011;47835;52.778;5.956;2024-02-28T12:26:46;251.00;;;123.10;;
61895;SDS011;47835;52.778;5.956;2024-02-28T12:29:12;171.55;;;91.15;;
61895;SDS011;47835;52.778;5.956;2024-02-28T12:31:38;149.15;;;76.88;;
61895;SDS011;47835;52.778;5.956;2024-02-28T12:34:04;219.75;;;114.25;;
61895;SDS011;47835;52.778;5.956;2024-02-28T12:36:30;153.70;;;79.78;;
61895;SDS011;47835;52.778;5.956;2024-02-28T12:38:57;171.77;;;87.85;;
61895;SDS011;47835;52.778;5.956;2024-02-28T12:41:25;61.10;;;37.00;;
61895;SDS011;47835;52.778;5.956;2024-02-28T12:43:51;60.25;;;34.38;;
61895;SDS011;47835;52.778;5.956;2024-02-28T12:46:17;39.08;;;26.60;;
61895;SDS011;47835;52.778;5.956;2024-02-28T12:48:43;32.88;;;26.20;;
61895;SDS011;47835;52.778;5.956;2024-02-28T12:54:03;36.88;;;27.75;;
61895;SDS011;47835;52.778;5.956;2024-02-28T12:56:29;35.80;;;27.05;;
61895;SDS011;47835;52.778;5.956;2024-02-28T12:58:55;61.58;;;38.25;;
61895;SDS011;47835;52.778;5.956;2024-02-28T13:01:21;66.75;;;39.97;;
61895;SDS011;47835;52.778;5.956;2024-02-28T13:03:46;53.85;;;31.75;;
61895;SDS011;47835;52.778;5.956;2024-02-28T13:06:13;33.78;;;25.70;;
61895;SDS011;47835;52.778;5.956;2024-02-28T13:08:40;37.08;;;26.73;;
61895;SDS011;47835;52.778;5.956;2024-02-28T13:11:06;104.53;;;56.47;;
61895;SDS011;47835;52.778;5.956;2024-02-28T13:13:33;70.97;;;40.88;;
61895;SDS011;47835;52.778;5.956;2024-02-28T13:16:01;30.00;;;24.80;;
61895;SDS011;47835;52.778;5.956;2024-02-28T13:18:27;28.13;;;21.25;;
61895;SDS011;47835;52.778;5.956;2024-02-28T13:20:53;31.08;;;22.73;;
61895;SDS011;47835;52.778;5.956;2024-02-28T13:23:19;32.65;;;22.67;;
61895;SDS011;47835;52.778;5.956;2024-02-28T13:25:45;26.10;;;21.08;;
61895;SDS011;47835;52.778;5.956;2024-02-28T13:28:10;26.48;;;20.83;;
61895;SDS011;47835;52.778;5.956;2024-02-28T13:30:36;26.40;;;22.30;;
61895;SDS011;47835;52.778;5.956;2024-02-28T13:33:03;141.52;;;74.13;;
61895;SDS011;47835;52.778;5.956;2024-02-28T13:35:32;92.30;;;52.15;;
61895;SDS011;47835;52.778;5.956;2024-02-28T13:37:57;313.40;;;143.63;;
61895;SDS011;47835;52.778;5.956;2024-02-28T13:40:28;278.10;;;126.18;;
61895;SDS011;47835;52.778;5.956;2024-02-28T13:42:54;252.73;;;123.18;;
61895;SDS011;47835;52.778;5.956;2024-02-28T13:45:20;94.82;;;52.75;;
61895;SDS011;47835;52.778;5.956;2024-02-28T13:47:46;42.75;;;25.52;;
61895;SDS011;47835;52.778;5.956;2024-02-28T13:50:11;30.48;;;21.65;;
61895;SDS011;47835;52.778;5.956;2024-02-28T13:52:39;35.28;;;21.73;;
61895;SDS011;47835;52.778;5.956;2024-02-28T13:55:05;28.13;;;18.95;;
61895;SDS011;47835;52.778;5.956;2024-02-28T13:57:34;25.88;;;20.25;;
61895;SDS011;47835;52.778;5.956;2024-02-28T14:00:00;21.55;;;17.45;;
61895;SDS011;47835;52.778;5.956;2024-02-28T14:02:26;20.38;;;16.77;;
61895;SDS011;47835;52.778;5.956;2024-02-28T14:04:52;22.30;;;17.23;;
61895;SDS011;47835;52.778;5.956;2024-02-28T14:07:19;21.52;;;16.98;;
61895;SDS011;47835;52.778;5.956;2024-02-28T14:09:44;68.68;;;37.42;;
61895;SDS011;47835;52.778;5.956;2024-02-28T14:12:11;98.47;;;51.00;;
61895;SDS011;47835;52.778;5.956;2024-02-28T14:14:42;115.07;;;55.10;;
61895;SDS011;47835;52.778;5.956;2024-02-28T14:17:08;30.65;;;20.70;;
61895;SDS011;47835;52.778;5.956;2024-02-28T14:19:34;23.10;;;17.70;;
61895;SDS011;47835;52.778;5.956;2024-02-28T14:22:03;39.25;;;24.67;;